Duas Estrelas — CUFP4 — position and weather

sailwx.info

Track history (hours):
 
Tides and Currents Weather Stations Pressure Air Temp Water Temp Dewpoint Dewpoint Depression Visibility Wind Speed Wind Dir Waves Ship Positions

Duas Estrelas

Last reported at 2018-Jun-23 08:41 UTC. Time now 2018-Jun-24 03:42 UTC.
Position N 41°11' W 008°42'.

Length 22 m.

Type: Fishing. MMSI: 263414590.

Date/timePositionNaut miles runAvg speedWind from/ knotsBaromVisibWave heightAir tempDewpointWater temp
2018-Jun-23 08:41N 41°11' W 008°42'0 0.0
2018-Jun-23 08:30N 41°11' W 008°42'0 0.0
2018-Jun-23 08:00N 41°11' W 008°42'0 0.0
2018-Jun-23 07:30N 41°11' W 008°42'0 0.0
2018-Jun-23 07:00N 41°11' W 008°42'0 0.0
2018-Jun-23 06:30N 41°11' W 008°42'1 1.1
2018-Jun-23 06:00N 41°10' W 008°42'2 0.3
2018-Jun-22 22:17N 41°10' W 008°45'2 8.1
2018-Jun-22 22:00N 41°11' W 008°42'0 0.0
2018-Jun-22 10:08N 41°11' W 008°42'0 0.0
2018-Jun-22 10:00N 41°11' W 008°42'0 0.0
2018-Jun-22 09:30N 41°11' W 008°42'0 0.0
2018-Jun-22 09:00N 41°11' W 008°42'0 0.0
2018-Jun-22 08:30N 41°11' W 008°42'2 4.0
2018-Jun-22 08:00N 41°10' W 008°44'1 0.1
2018-Jun-21 21:48N 41°10' W 008°42'1 4.5
2018-Jun-21 21:31N 41°11' W 008°42'0 0.0
2018-Jun-21 12:02N 41°11' W 008°42'0 0.0
2018-Jun-21 12:00N 41°11' W 008°42'0 0.1
2018-Jun-21 11:30N 41°11' W 008°42'0 0.0
2018-Jun-21 10:59N 41°11' W 008°42'0 0.0
2018-Jun-21 10:30N 41°11' W 008°42'0 0.0
2018-Jun-21 10:00N 41°11' W 008°42'0 0.0
2018-Jun-21 09:30N 41°11' W 008°42'1 0.1
2018-Jun-20 22:13N 41°10' W 008°43'1 5.7
2018-Jun-20 22:00N 41°11' W 008°42'0 0.0
2018-Jun-20 07:55N 41°11' W 008°42'0 0.0
2018-Jun-20 07:31N 41°11' W 008°42'0 0.0
2018-Jun-20 07:00N 41°11' W 008°42'0 0.0
2018-Jun-20 06:31N 41°11' W 008°42'0 0.0
2018-Jun-20 06:01N 41°11' W 008°42'0 0.0
2018-Jun-20 05:31N 41°11' W 008°42'4 0.5
2018-Jun-19 22:26N 41°10' W 008°47'4 8.7
2018-Jun-19 22:01N 41°11' W 008°42'0 0.0
2018-Jun-19 10:13N 41°11' W 008°42'0 0.0
2018-Jun-19 10:00N 41°11' W 008°42'0 0.0
2018-Jun-19 09:30N 41°11' W 008°42'0 0.0
2018-Jun-19 08:59N 41°11' W 008°42'0 0.0
2018-Jun-19 08:30N 41°11' W 008°42'0 0.0
2018-Jun-19 08:00N 41°11' W 008°42'0 0.3
2018-Jun-19 07:30N 41°11' W 008°42'1 0.1
2018-Jun-18 22:12N 41°10' W 008°42'1 4.9
2018-Jun-18 22:00N 41°11' W 008°42'0 0.0
2018-Jun-18 11:19N 41°11' W 008°42'0 0.3
2018-Jun-18 11:00N 41°11' W 008°42'0 0.0
2018-Jun-18 10:30N 41°11' W 008°42'0 0.0
2018-Jun-18 09:59N 41°11' W 008°42'0 0.0
2018-Jun-18 09:30N 41°11' W 008°42'0 0.6
2018-Jun-18 09:00N 41°11' W 008°42'1 0.2
2018-Jun-18 00:35N 41°10' W 008°44'1 8.7
2018-Jun-18 00:30N 41°10' W 008°43'1 2.0
2018-Jun-18 00:00N 41°11' W 008°42'0 0.0
2018-Jun-17 23:30N 41°11' W 008°42'0 0.0
2018-Jun-17 23:00N 41°11' W 008°42'0 0.0
2018-Jun-17 22:30N 41°11' W 008°42'0 0.0
2018-Jun-17 21:59N 41°11' W 008°42'0 0.0
2018-Jun-17 21:30N 41°11' W 008°42'0 0.1
2018-Jun-17 21:00N 41°11' W 008°42'  
2018-Jun-15 11:37N 41°11' W 008°42'0 0.0
2018-Jun-15 11:30N 41°11' W 008°42'0 0.3
2018-Jun-15 11:00N 41°11' W 008°42'0 0.0
2018-Jun-15 10:30N 41°11' W 008°42'0 0.3
2018-Jun-15 10:00N 41°11' W 008°42'0 0.0
2018-Jun-15 09:31N 41°11' W 008°42'0 0.0
2018-Jun-15 09:00N 41°11' W 008°42'0 0.0
2018-Jun-15 08:30N 41°11' W 008°42'0 0.0
2018-Jun-15 08:00N 41°11' W 008°42'0 0.0
2018-Jun-15 07:31N 41°11' W 008°42'3 0.4
2018-Jun-15 00:06N 41°08' W 008°43'110.0
2018-Jun-15 00:01N 41°09' W 008°43'2 3.7
2018-Jun-14 23:30N 41°11' W 008°42'0 0.0
2018-Jun-14 23:00N 41°11' W 008°42'0 0.0
2018-Jun-14 11:25N 41°11' W 008°42'0 0.1
2018-Jun-14 11:00N 41°11' W 008°42'0 0.0
2018-Jun-14 10:30N 41°11' W 008°42'2 0.2
2018-Jun-14 00:37N 41°10' W 008°43'1 8.9
2018-Jun-14 00:30N 41°10' W 008°42'1 1.1
2018-Jun-14 00:00N 41°11' W 008°42'0 0.0
2018-Jun-13 23:30N 41°11' W 008°42'0 0.0
2018-Jun-13 23:00N 41°11' W 008°42'0 0.0
2018-Jun-13 22:30N 41°11' W 008°42'0 0.0
2018-Jun-13 22:00N 41°11' W 008°42'  
Track history (hours):
 
Tides and Currents Weather Stations Pressure Air Temp Water Temp Dewpoint Dewpoint Depression Visibility Wind Speed Wind Dir Waves Ship Positions

Duas Estrelas

Last reported at 2018-Jun-23 08:41 UTC. Time now 2018-Jun-24 03:42 UTC.
Position N 41°11' W 008°42'.

Length 22 m.

Type: Fishing. MMSI: 263414590.

Date/timePositionNaut miles runAvg speedWind from/ knotsBaromVisibWave heightAir tempDewpointWater temp
2018-Jun-23 08:41N 41°11' W 008°42'0 0.0
2018-Jun-23 08:30N 41°11' W 008°42'0 0.0
2018-Jun-23 08:00N 41°11' W 008°42'0 0.0
2018-Jun-23 07:30N 41°11' W 008°42'0 0.0
2018-Jun-23 07:00N 41°11' W 008°42'0 0.0
2018-Jun-23 06:30N 41°11' W 008°42'1 1.1
2018-Jun-23 06:00N 41°10' W 008°42'2 0.3
2018-Jun-22 22:17N 41°10' W 008°45'2 8.1
2018-Jun-22 22:00N 41°11' W 008°42'0 0.0
2018-Jun-22 10:08N 41°11' W 008°42'0 0.0
2018-Jun-22 10:00N 41°11' W 008°42'0 0.0
2018-Jun-22 09:30N 41°11' W 008°42'0 0.0
2018-Jun-22 09:00N 41°11' W 008°42'0 0.0
2018-Jun-22 08:30N 41°11' W 008°42'2 4.0
2018-Jun-22 08:00N 41°10' W 008°44'1 0.1
2018-Jun-21 21:48N 41°10' W 008°42'1 4.5
2018-Jun-21 21:31N 41°11' W 008°42'0 0.0
2018-Jun-21 12:02N 41°11' W 008°42'0 0.0
2018-Jun-21 12:00N 41°11' W 008°42'0 0.1
2018-Jun-21 11:30N 41°11' W 008°42'0 0.0
2018-Jun-21 10:59N 41°11' W 008°42'0 0.0
2018-Jun-21 10:30N 41°11' W 008°42'0 0.0
2018-Jun-21 10:00N 41°11' W 008°42'0 0.0
2018-Jun-21 09:30N 41°11' W 008°42'1 0.1
2018-Jun-20 22:13N 41°10' W 008°43'1 5.7
2018-Jun-20 22:00N 41°11' W 008°42'0 0.0
2018-Jun-20 07:55N 41°11' W 008°42'0 0.0
2018-Jun-20 07:31N 41°11' W 008°42'0 0.0
2018-Jun-20 07:00N 41°11' W 008°42'0 0.0
2018-Jun-20 06:31N 41°11' W 008°42'0 0.0
2018-Jun-20 06:01N 41°11' W 008°42'0 0.0
2018-Jun-20 05:31N 41°11' W 008°42'4 0.5
2018-Jun-19 22:26N 41°10' W 008°47'4 8.7
2018-Jun-19 22:01N 41°11' W 008°42'0 0.0
2018-Jun-19 10:13N 41°11' W 008°42'0 0.0
2018-Jun-19 10:00N 41°11' W 008°42'0 0.0
2018-Jun-19 09:30N 41°11' W 008°42'0 0.0
2018-Jun-19 08:59N 41°11' W 008°42'0 0.0
2018-Jun-19 08:30N 41°11' W 008°42'0 0.0
2018-Jun-19 08:00N 41°11' W 008°42'0 0.3
2018-Jun-19 07:30N 41°11' W 008°42'1 0.1
2018-Jun-18 22:12N 41°10' W 008°42'1 4.9
2018-Jun-18 22:00N 41°11' W 008°42'0 0.0
2018-Jun-18 11:19N 41°11' W 008°42'0 0.3
2018-Jun-18 11:00N 41°11' W 008°42'0 0.0
2018-Jun-18 10:30N 41°11' W 008°42'0 0.0
2018-Jun-18 09:59N 41°11' W 008°42'0 0.0
2018-Jun-18 09:30N 41°11' W 008°42'0 0.6
2018-Jun-18 09:00N 41°11' W 008°42'1 0.2
2018-Jun-18 00:35N 41°10' W 008°44'1 8.7
2018-Jun-18 00:30N 41°10' W 008°43'1 2.0
2018-Jun-18 00:00N 41°11' W 008°42'0 0.0
2018-Jun-17 23:30N 41°11' W 008°42'0 0.0
2018-Jun-17 23:00N 41°11' W 008°42'0 0.0
2018-Jun-17 22:30N 41°11' W 008°42'0 0.0
2018-Jun-17 21:59N 41°11' W 008°42'0 0.0
2018-Jun-17 21:30N 41°11' W 008°42'0 0.1
2018-Jun-17 21:00N 41°11' W 008°42'  
2018-Jun-15 11:37N 41°11' W 008°42'0 0.0
2018-Jun-15 11:30N 41°11' W 008°42'0 0.3
2018-Jun-15 11:00N 41°11' W 008°42'0 0.0
2018-Jun-15 10:30N 41°11' W 008°42'0 0.3
2018-Jun-15 10:00N 41°11' W 008°42'0 0.0
2018-Jun-15 09:31N 41°11' W 008°42'0 0.0
2018-Jun-15 09:00N 41°11' W 008°42'0 0.0
2018-Jun-15 08:30N 41°11' W 008°42'0 0.0
2018-Jun-15 08:00N 41°11' W 008°42'0 0.0
2018-Jun-15 07:31N 41°11' W 008°42'3 0.4
2018-Jun-15 00:06N 41°08' W 008°43'110.0
2018-Jun-15 00:01N 41°09' W 008°43'2 3.7
2018-Jun-14 23:30N 41°11' W 008°42'0 0.0
2018-Jun-14 23:00N 41°11' W 008°42'0 0.0
2018-Jun-14 11:25N 41°11' W 008°42'0 0.1
2018-Jun-14 11:00N 41°11' W 008°42'0 0.0
2018-Jun-14 10:30N 41°11' W 008°42'2 0.2
2018-Jun-14 00:37N 41°10' W 008°43'1 8.9
2018-Jun-14 00:30N 41°10' W 008°42'1 1.1
2018-Jun-14 00:00N 41°11' W 008°42'0 0.0
2018-Jun-13 23:30N 41°11' W 008°42'0 0.0
2018-Jun-13 23:00N 41°11' W 008°42'0 0.0
2018-Jun-13 22:30N 41°11' W 008°42'0 0.0
2018-Jun-13 22:00N 41°11' W 008°42'  

Dump ship's entire track history